createdAt,value
2022-09-09T00:00:42.630Z,22.42
2022-09-09T00:03:16.685Z,22.41
2022-09-09T00:05:51.477Z,22.41
2022-09-09T00:08:24.045Z,22.40
2022-09-09T00:10:59.844Z,22.40
2022-09-09T00:13:36.206Z,22.40
2022-09-09T00:16:09.941Z,22.41
2022-09-09T00:18:54.249Z,22.41
2022-09-09T00:21:28.790Z,22.41
2022-09-09T00:23:58.531Z,22.39
2022-09-09T00:26:37.936Z,22.40
2022-09-09T00:29:16.167Z,22.38
2022-09-09T00:31:44.419Z,22.37
2022-09-09T00:34:16.557Z,22.39
2022-09-09T00:36:45.825Z,22.39
2022-09-09T00:39:23.864Z,22.36
2022-09-09T00:42:10.064Z,22.37
2022-09-09T00:44:40.678Z,22.37
2022-09-09T00:47:38.107Z,22.38
2022-09-09T00:50:30.765Z,22.38
2022-09-09T00:53:11.632Z,22.39
2022-09-09T00:55:49.123Z,22.38
2022-09-09T00:58:17.216Z,22.19
2022-09-09T01:00:50.139Z,22.36
2022-09-09T01:03:34.059Z,22.35
2022-09-09T01:06:06.196Z,22.36
2022-09-09T01:08:55.569Z,22.35
2022-09-09T01:11:28.328Z,22.37
2022-09-09T01:14:03.982Z,22.38
2022-09-09T01:16:33.847Z,22.37
2022-09-09T01:19:03.490Z,22.37
2022-09-09T01:21:45.701Z,22.37
2022-09-09T01:24:26.911Z,22.35
2022-09-09T01:27:00.711Z,22.36
2022-09-09T01:29:29.018Z,22.37
2022-09-09T01:31:58.857Z,22.36
2022-09-09T01:34:31.058Z,22.36
2022-09-09T01:37:05.678Z,22.37
2022-09-09T01:39:35.468Z,22.26
2022-09-09T01:42:08.793Z,22.34
2022-09-09T01:44:38.255Z,22.29
2022-09-09T01:47:07.561Z,22.34
2022-09-09T01:49:35.663Z,22.37
2022-09-09T01:52:04.450Z,22.37
2022-09-09T01:54:34.954Z,22.37
2022-09-09T01:57:11.022Z,22.36
2022-09-09T01:59:53.487Z,22.36
2022-09-09T02:02:28.192Z,22.35
2022-09-09T02:04:59.343Z,22.27
2022-09-09T02:07:37.800Z,22.30
2022-09-09T02:10:13.523Z,22.33
2022-09-09T02:12:48.139Z,22.34
2022-09-09T02:15:25.307Z,21.95
2022-09-09T02:17:55.175Z,22.31
2022-09-09T02:20:25.335Z,22.30
2022-09-09T02:22:55.263Z,22.07
2022-09-09T02:25:27.588Z,22.29
2022-09-09T02:27:59.884Z,22.10
2022-09-09T02:30:31.894Z,22.34
2022-09-09T02:33:03.248Z,22.32
2022-09-09T02:35:33.308Z,22.31
2022-09-09T02:38:04.863Z,22.10
2022-09-09T02:40:33.108Z,22.32
2022-09-09T02:43:04.069Z,22.32
2022-09-09T02:45:41.414Z,22.33
2022-09-09T02:48:16.403Z,22.32
2022-09-09T02:50:54.843Z,22.30
2022-09-09T02:53:26.870Z,22.34
2022-09-09T02:56:00.395Z,22.35
2022-09-09T02:58:30.586Z,22.37
2022-09-09T03:01:00.596Z,22.34
2022-09-09T03:03:29.024Z,22.31
2022-09-09T03:05:57.980Z,22.33
2022-09-09T03:08:26.132Z,22.30
2022-09-09T03:10:55.396Z,22.35
2022-09-09T03:13:23.525Z,22.34
2022-09-09T03:15:53.580Z,22.35
2022-09-09T03:18:21.707Z,22.35
2022-09-09T03:20:50.712Z,22.36
2022-09-09T03:23:18.867Z,22.36
2022-09-09T03:25:50.458Z,22.37
2022-09-09T03:28:18.652Z,22.36
2022-09-09T03:30:46.715Z,22.35
2022-09-09T03:33:17.230Z,22.37
2022-09-09T03:35:49.886Z,22.30
2022-09-09T03:38:18.104Z,22.36
2022-09-09T03:40:52.543Z,22.35
2022-09-09T03:43:20.945Z,22.34
2022-09-09T03:45:49.502Z,22.13
2022-09-09T03:48:20.329Z,22.33
2022-09-09T03:50:48.899Z,22.30
2022-09-09T03:53:18.606Z,22.33
2022-09-09T03:55:47.138Z,22.31
2022-09-09T03:58:15.891Z,22.30
2022-09-09T04:00:46.086Z,22.30
2022-09-09T04:03:14.532Z,22.28
2022-09-09T04:05:44.130Z,22.27
2022-09-09T04:08:12.513Z,22.29
2022-09-09T04:10:40.620Z,22.28
2022-09-09T04:13:08.699Z,22.29
2022-09-09T04:15:37.714Z,22.29
2022-09-09T04:18:06.627Z,22.29
2022-09-09T04:20:35.192Z,22.07
2022-09-09T04:23:04.705Z,22.34
2022-09-09T04:25:32.870Z,22.35
2022-09-09T04:28:00.987Z,22.36
2022-09-09T04:30:29.593Z,22.35
2022-09-09T04:32:58.884Z,22.35
2022-09-09T04:35:28.306Z,22.34
2022-09-09T04:37:56.361Z,22.34
2022-09-09T04:40:25.938Z,22.34
2022-09-09T04:42:54.082Z,22.34
2022-09-09T04:45:22.244Z,22.33
2022-09-09T04:47:50.352Z,22.28
2022-09-09T04:50:18.571Z,22.30
2022-09-09T04:52:46.781Z,22.30
2022-09-09T04:55:14.943Z,22.30
2022-09-09T04:57:44.484Z,22.31
2022-09-09T05:00:14.659Z,22.30
2022-09-09T05:02:43.663Z,22.30
2022-09-09T05:05:12.333Z,22.27
2022-09-09T05:07:40.404Z,22.28
2022-09-09T05:10:08.946Z,22.30
2022-09-09T05:12:37.048Z,22.30
2022-09-09T05:15:08.188Z,22.30
2022-09-09T05:17:36.287Z,22.30
2022-09-09T05:20:09.529Z,22.29
2022-09-09T05:22:38.319Z,22.23
2022-09-09T05:25:06.961Z,22.31
2022-09-09T05:27:36.170Z,22.32
2022-09-09T05:30:05.627Z,22.31
2022-09-09T05:32:35.312Z,22.30
2022-09-09T05:35:03.862Z,22.31
2022-09-09T05:37:33.412Z,22.31
2022-09-09T05:40:02.172Z,22.33
2022-09-09T05:42:33.637Z,22.31
2022-09-09T05:45:01.713Z,22.32
2022-09-09T05:47:29.989Z,22.34
2022-09-09T05:49:59.523Z,22.38
2022-09-09T05:52:28.452Z,22.40
2022-09-09T05:54:58.030Z,22.07
2022-09-09T05:57:26.294Z,22.44
2022-09-09T05:59:54.817Z,22.30
2022-09-09T06:02:23.185Z,22.46
2022-09-09T06:04:51.351Z,22.48
2022-09-09T06:07:21.139Z,22.49
2022-09-09T06:09:49.270Z,22.51
2022-09-09T06:12:17.383Z,22.52
2022-09-09T06:14:46.557Z,22.40
2022-09-09T06:17:14.715Z,22.46
2022-09-09T06:19:43.414Z,22.53
2022-09-09T06:22:13.459Z,22.27
2022-09-09T06:24:43.022Z,22.47
2022-09-09T06:27:11.802Z,22.53
2022-09-09T06:29:39.913Z,22.36
2022-09-09T06:32:09.680Z,22.56
2022-09-09T06:34:37.812Z,22.55
2022-09-09T06:37:07.363Z,22.57
2022-09-09T06:39:35.746Z,22.57
2022-09-09T06:42:05.704Z,22.55
2022-09-09T06:44:35.528Z,22.55
2022-09-09T06:47:04.455Z,22.58
2022-09-09T06:49:32.630Z,22.56
2022-09-09T06:52:00.720Z,22.59
2022-09-09T06:54:29.608Z,22.59
2022-09-09T06:56:57.765Z,22.59
2022-09-09T06:59:28.542Z,22.59
2022-09-09T07:01:56.725Z,22.58
2022-09-09T07:04:24.864Z,22.59
2022-09-09T07:06:53.698Z,22.62
2022-09-09T07:09:22.681Z,22.57
2022-09-09T07:11:53.868Z,22.62
2022-09-09T07:14:23.747Z,22.61
2022-09-09T07:16:56.465Z,22.61
2022-09-09T07:19:27.473Z,22.59
2022-09-09T07:21:55.611Z,22.62
2022-09-09T07:24:24.122Z,22.63
2022-09-09T07:26:53.222Z,22.57
2022-09-09T07:29:21.475Z,22.53
2022-09-09T07:31:49.863Z,22.07
2022-09-09T07:34:19.539Z,22.62
2022-09-09T07:36:47.852Z,22.62
2022-09-09T07:39:18.426Z,22.48
2022-09-09T07:41:48.293Z,22.65
2022-09-09T07:44:18.735Z,22.65
2022-09-09T07:46:47.343Z,22.65
2022-09-09T07:49:16.056Z,22.65
2022-09-09T07:51:47.497Z,22.65
2022-09-09T07:54:17.391Z,22.65
2022-09-09T07:56:45.599Z,22.51
2022-09-09T07:59:13.996Z,22.65
2022-09-09T08:01:44.309Z,22.65
2022-09-09T08:04:16.604Z,22.64
2022-09-09T08:06:48.346Z,22.66
2022-09-09T08:09:17.776Z,22.64
2022-09-09T08:11:46.096Z,22.63
2022-09-09T08:14:15.146Z,22.64
2022-09-09T08:16:45.486Z,22.63
2022-09-09T08:19:13.826Z,22.40
2022-09-09T08:21:43.071Z,22.62
2022-09-09T08:24:14.981Z,22.63
2022-09-09T08:26:44.933Z,22.64
2022-09-09T08:29:14.903Z,22.63
2022-09-09T08:31:44.626Z,22.42
2022-09-09T08:34:13.588Z,22.63
2022-09-09T08:36:44.382Z,22.41
2022-09-09T08:39:15.941Z,22.61
2022-09-09T08:42:10.310Z,22.65
2022-09-09T08:44:51.530Z,22.54
2022-09-09T08:47:33.758Z,22.65
2022-09-09T08:50:25.808Z,22.57
2022-09-09T08:53:02.656Z,22.65
2022-09-09T08:55:41.116Z,22.65
2022-09-09T08:58:15.181Z,22.65
2022-09-09T09:00:53.261Z,22.65
2022-09-09T09:03:30.216Z,22.65
2022-09-09T09:06:07.922Z,22.65
2022-09-09T09:08:45.634Z,22.62
2022-09-09T09:11:15.217Z,22.64
2022-09-09T09:13:49.604Z,22.64
2022-09-09T09:16:25.715Z,22.64
2022-09-09T09:18:55.525Z,22.62
2022-09-09T09:21:35.675Z,22.43
2022-09-09T09:24:05.276Z,22.63
2022-09-09T09:26:37.263Z,22.47
2022-09-09T09:29:14.212Z,22.57
2022-09-09T09:31:49.071Z,22.66
2022-09-09T09:34:18.584Z,22.67
2022-09-09T09:36:54.985Z,22.66
2022-09-09T09:42:21.669Z,22.65
2022-09-09T09:44:51.858Z,22.64
2022-09-09T09:47:21.620Z,22.66
2022-09-09T09:49:56.873Z,22.66
2022-09-09T09:52:27.779Z,22.66
2022-09-09T09:54:57.934Z,22.65
2022-09-09T09:57:31.378Z,22.65
2022-09-09T10:00:15.665Z,22.65
2022-09-09T10:02:45.197Z,22.66
2022-09-09T10:05:26.504Z,22.65
2022-09-09T10:08:07.132Z,22.66
2022-09-09T10:10:51.698Z,22.63
2022-09-09T10:13:29.487Z,22.64
2022-09-09T10:16:10.649Z,22.58
2022-09-09T10:18:55.951Z,22.67
2022-09-09T10:21:40.311Z,22.62
2022-09-09T10:24:36.462Z,22.58
2022-09-09T10:27:14.067Z,22.61
2022-09-09T10:30:02.643Z,22.60
2022-09-09T10:32:45.927Z,22.52
2022-09-09T10:35:31.490Z,22.58
2022-09-09T10:38:18.778Z,22.56
2022-09-09T10:41:10.530Z,22.57
2022-09-09T10:44:00.267Z,22.34
2022-09-09T10:46:40.437Z,22.55
2022-09-09T10:49:23.182Z,22.54
2022-09-09T10:52:00.038Z,22.53
2022-09-09T10:54:50.074Z,22.53
2022-09-09T10:57:29.441Z,22.36
2022-09-09T11:00:02.091Z,22.50
2022-09-09T11:02:33.033Z,22.53
2022-09-09T11:05:06.605Z,22.57
2022-09-09T11:07:41.958Z,22.63
2022-09-09T11:10:22.208Z,22.67
2022-09-09T11:12:53.147Z,22.70
2022-09-09T11:15:29.196Z,22.73
2022-09-09T11:18:03.659Z,22.74
2022-09-09T11:20:33.210Z,22.76
2022-09-09T11:23:05.400Z,22.78
2022-09-09T11:25:38.642Z,22.79
2022-09-09T11:28:29.263Z,22.77
2022-09-09T11:31:12.602Z,22.80
2022-09-09T11:34:16.466Z,22.81
2022-09-09T11:37:33.291Z,22.80
2022-09-09T11:40:22.767Z,22.78
2022-09-09T11:42:51.792Z,22.76
2022-09-09T11:45:26.807Z,22.80
2022-09-09T11:47:57.113Z,22.80
2022-09-09T11:50:38.467Z,22.83
2022-09-09T11:53:23.719Z,22.83
2022-09-09T11:56:11.240Z,22.85
2022-09-09T11:58:42.847Z,22.85
2022-09-09T12:01:38.405Z,22.83
2022-09-09T12:04:35.419Z,22.86
2022-09-09T12:07:07.571Z,22.87
2022-09-09T12:09:48.853Z,22.88
2022-09-09T12:12:29.733Z,22.87
2022-09-09T12:15:01.474Z,22.84
2022-09-09T12:17:31.193Z,22.63
2022-09-09T12:20:08.592Z,22.76
2022-09-09T12:22:50.298Z,22.60
2022-09-09T12:25:27.952Z,22.73
2022-09-09T12:28:07.896Z,22.73
2022-09-09T12:30:43.815Z,22.71
2022-09-09T12:33:16.248Z,22.70
2022-09-09T12:35:47.324Z,22.70
2022-09-09T12:38:25.202Z,22.71
2022-09-09T12:40:58.656Z,22.70
2022-09-09T12:43:29.205Z,22.38
2022-09-09T12:46:01.656Z,22.70
2022-09-09T12:48:39.258Z,22.68
2022-09-09T12:51:18.301Z,22.48
2022-09-09T12:53:48.644Z,22.63
2022-09-09T12:56:22.154Z,22.63
2022-09-09T12:58:53.072Z,22.63
2022-09-09T13:01:24.873Z,22.62
2022-09-09T13:03:54.463Z,22.64
2022-09-09T13:06:28.859Z,22.60
2022-09-09T13:09:01.784Z,22.63
2022-09-09T13:11:33.624Z,22.64
2022-09-09T13:14:02.270Z,22.62
2022-09-09T13:16:33.369Z,22.48
2022-09-09T13:19:09.181Z,22.57
2022-09-09T13:21:39.089Z,22.62
2022-09-09T13:24:27.720Z,22.62
2022-09-09T13:26:58.662Z,22.63
2022-09-09T13:29:26.976Z,22.63
2022-09-09T13:31:56.817Z,22.54
2022-09-09T13:34:30.839Z,22.55
2022-09-09T13:37:03.868Z,22.65
2022-09-09T13:39:34.807Z,22.66
2022-09-09T13:42:05.818Z,22.47
2022-09-09T13:44:37.661Z,22.67
2022-09-09T13:47:10.507Z,22.68
2022-09-09T13:49:39.397Z,22.68
2022-09-09T13:52:12.996Z,22.69
2022-09-09T13:54:42.893Z,22.68
2022-09-09T13:57:18.500Z,22.71
2022-09-09T14:00:03.978Z,22.52
2022-09-09T14:02:32.628Z,22.72
2022-09-09T14:05:00.817Z,22.71
2022-09-09T14:07:29.461Z,22.70
2022-09-09T14:09:58.988Z,22.70
2022-09-09T14:12:27.293Z,22.68
2022-09-09T14:14:55.366Z,22.68
2022-09-09T14:17:24.133Z,22.71
2022-09-09T14:19:52.280Z,22.72
2022-09-09T14:22:20.371Z,22.72
2022-09-09T14:24:48.477Z,22.73
2022-09-09T14:27:19.804Z,22.73
2022-09-09T14:29:47.941Z,22.73
2022-09-09T14:32:16.036Z,22.70
2022-09-09T14:34:44.369Z,22.70
2022-09-09T14:37:12.690Z,22.72
2022-09-09T14:39:40.821Z,22.72
2022-09-09T14:42:12.106Z,22.72
2022-09-09T14:44:41.753Z,22.71
2022-09-09T14:47:10.659Z,22.71
2022-09-09T14:49:42.597Z,22.69
2022-09-09T14:52:13.472Z,22.69
2022-09-09T14:54:41.589Z,22.66
2022-09-09T14:57:09.733Z,22.68
2022-09-09T14:59:37.800Z,22.69
2022-09-09T15:02:07.697Z,22.68
2022-09-09T15:04:36.519Z,22.68
2022-09-09T15:07:04.638Z,22.68
2022-09-09T15:09:32.875Z,22.69
2022-09-09T15:12:01.883Z,22.69
2022-09-09T15:14:29.981Z,22.68
2022-09-09T15:16:58.142Z,22.68
2022-09-09T15:19:27.678Z,22.67
2022-09-09T15:21:55.892Z,22.69
2022-09-09T15:24:24.097Z,22.70
2022-09-09T15:26:52.223Z,22.69
2022-09-09T15:29:20.545Z,22.71
2022-09-09T15:31:48.934Z,22.70
2022-09-09T15:34:17.130Z,22.70
2022-09-09T15:36:47.815Z,22.69
2022-09-09T15:39:17.698Z,22.73
2022-09-09T15:41:46.717Z,22.68
2022-09-09T15:44:16.914Z,22.64
2022-09-09T15:46:46.683Z,22.59
2022-09-09T15:49:16.209Z,22.63
2022-09-09T15:51:47.543Z,22.63
2022-09-09T15:54:17.863Z,22.64
2022-09-09T15:56:46.558Z,22.65
2022-09-09T15:59:14.724Z,22.64
2022-09-09T16:01:43.270Z,22.62
2022-09-09T16:04:11.678Z,22.65
2022-09-09T16:06:40.184Z,22.64
2022-09-09T16:09:11.243Z,22.64
2022-09-09T16:11:40.267Z,22.66
2022-09-09T16:14:08.607Z,22.65
2022-09-09T16:16:37.705Z,22.67
2022-09-09T16:19:08.162Z,22.66
2022-09-09T16:21:38.782Z,22.66
2022-09-09T16:24:08.569Z,22.63
2022-09-09T16:26:40.629Z,22.64
2022-09-09T16:29:09.870Z,22.64
2022-09-09T16:31:38.885Z,22.63
2022-09-09T16:34:07.100Z,22.64
2022-09-09T16:36:37.070Z,22.64
2022-09-09T16:39:08.000Z,22.64
2022-09-09T16:41:39.040Z,22.62
2022-09-09T16:44:09.768Z,22.65
2022-09-09T16:46:40.014Z,22.65
2022-09-09T16:49:09.861Z,22.63
2022-09-09T16:51:39.654Z,22.67
2022-09-09T16:54:09.266Z,22.66
2022-09-09T16:56:42.259Z,22.57
2022-09-09T16:59:12.561Z,22.65
2022-09-09T17:01:42.845Z,22.67
2022-09-09T17:04:14.322Z,22.66
2022-09-09T17:06:42.533Z,22.66
2022-09-09T17:09:12.257Z,22.65
2022-09-09T17:11:42.412Z,22.65
2022-09-09T17:14:13.696Z,22.66
2022-09-09T17:16:42.095Z,22.66
2022-09-09T17:19:11.751Z,22.66
2022-09-09T17:22:00.092Z,22.57
2022-09-09T17:24:30.245Z,22.65
2022-09-09T17:27:00.025Z,22.66
2022-09-09T17:29:28.380Z,22.65
2022-09-09T17:31:57.567Z,22.65
2022-09-09T17:34:26.365Z,22.66
2022-09-09T17:36:54.550Z,22.07
2022-09-09T17:39:22.716Z,22.65
2022-09-09T17:41:50.913Z,22.62
2022-09-09T17:44:21.162Z,22.63
2022-09-09T17:46:49.545Z,22.62
2022-09-09T17:49:19.639Z,22.24
2022-09-09T17:51:48.576Z,22.43
2022-09-09T17:54:19.350Z,22.65
2022-09-09T17:56:48.349Z,22.61
2022-09-09T17:59:18.792Z,22.64
2022-09-09T18:01:50.966Z,22.64
2022-09-09T18:04:20.520Z,22.43
2022-09-09T18:06:50.588Z,22.66
2022-09-09T18:09:20.603Z,22.65
2022-09-09T18:11:50.490Z,22.65
2022-09-09T18:14:20.679Z,22.65
2022-09-09T18:16:51.194Z,22.65
2022-09-09T18:19:21.622Z,22.63
2022-09-09T18:21:50.511Z,22.59
2022-09-09T18:24:20.000Z,22.66
2022-09-09T18:26:49.334Z,22.65
2022-09-09T18:29:20.116Z,22.59
2022-09-09T18:31:49.976Z,22.64
2022-09-09T18:34:20.334Z,22.64
2022-09-09T18:36:53.788Z,22.55
2022-09-09T18:39:24.972Z,22.65
2022-09-09T18:41:55.430Z,22.64
2022-09-09T18:44:26.171Z,22.65
2022-09-09T18:46:55.970Z,22.65
2022-09-09T18:49:25.621Z,22.64
2022-09-09T18:51:53.785Z,22.64
2022-09-09T18:54:23.550Z,22.66
2022-09-09T18:56:53.039Z,22.65
2022-09-09T18:59:23.870Z,22.65
2022-09-09T19:01:54.194Z,22.65
2022-09-09T19:04:25.371Z,22.64
2022-09-09T19:06:58.219Z,22.49
2022-09-09T19:09:28.644Z,22.69
2022-09-09T19:11:56.985Z,22.71
2022-09-09T19:14:25.262Z,22.71
2022-09-09T19:16:54.118Z,22.42
2022-09-09T19:19:25.953Z,22.72
2022-09-09T19:21:57.662Z,22.69
2022-09-09T19:24:28.589Z,22.69
2022-09-09T19:27:01.754Z,22.68
2022-09-09T19:29:32.036Z,22.68
2022-09-09T19:32:49.395Z,22.65
2022-09-09T19:34:52.517Z,22.67
2022-09-09T19:37:22.519Z,22.67
2022-09-09T19:39:51.029Z,22.67
2022-09-09T19:42:19.261Z,22.67
2022-09-09T19:44:47.603Z,22.66
2022-09-09T19:47:15.753Z,22.64
2022-09-09T19:49:47.214Z,22.67
2022-09-09T19:52:17.774Z,22.67
2022-09-09T19:54:46.858Z,22.67
2022-09-09T19:57:15.056Z,22.69
2022-09-09T19:59:43.234Z,22.70
2022-09-09T20:02:13.588Z,22.70
2022-09-09T20:04:41.741Z,22.68
2022-09-09T20:07:10.114Z,22.64
2022-09-09T20:09:39.634Z,22.69
2022-09-09T20:12:08.772Z,22.71
2022-09-09T20:14:39.639Z,22.71
2022-09-09T20:17:08.277Z,22.72
2022-09-09T20:19:36.389Z,22.67
2022-09-09T20:22:04.526Z,22.73
2022-09-09T20:24:32.964Z,22.72
2022-09-09T20:27:02.422Z,22.72
2022-09-09T20:29:30.499Z,22.72
2022-09-09T20:31:58.843Z,22.72
2022-09-09T20:34:28.221Z,22.73
2022-09-09T20:36:57.671Z,22.71
2022-09-09T20:39:26.516Z,22.72
2022-09-09T20:41:54.677Z,22.71
2022-09-09T20:44:25.237Z,22.73
2022-09-09T20:46:57.118Z,22.74
2022-09-09T20:49:25.758Z,22.72
2022-09-09T20:51:55.177Z,22.75
2022-09-09T20:54:25.135Z,22.75
2022-09-09T20:56:54.488Z,22.74
2022-09-09T20:59:26.094Z,22.74
2022-09-09T21:01:57.045Z,22.75
2022-09-09T21:04:26.280Z,22.74
2022-09-09T21:06:54.389Z,22.72
2022-09-09T21:09:24.687Z,22.73
2022-09-09T21:11:53.724Z,22.72
2022-09-09T21:14:23.927Z,22.72
2022-09-09T21:16:52.029Z,22.72
2022-09-09T21:19:20.122Z,22.73
2022-09-09T21:21:48.442Z,22.72
2022-09-09T21:24:16.681Z,22.73
2022-09-09T21:26:44.831Z,22.24
2022-09-09T21:29:13.203Z,22.65
2022-09-09T21:31:43.261Z,22.72
2022-09-09T21:34:13.388Z,22.73
2022-09-09T21:36:42.075Z,22.71
2022-09-09T21:39:10.221Z,22.74
2022-09-09T21:41:38.418Z,22.74
2022-09-09T21:44:06.561Z,22.74
2022-09-09T21:46:34.734Z,22.71
2022-09-09T21:49:04.368Z,22.74
2022-09-09T21:51:32.500Z,22.73
2022-09-09T21:54:00.535Z,22.74
2022-09-09T21:56:28.687Z,22.74
2022-09-09T21:58:57.928Z,22.74
2022-09-09T22:01:26.556Z,22.72
2022-09-09T22:03:54.791Z,22.72
2022-09-09T22:06:24.312Z,22.72
2022-09-09T22:08:52.570Z,22.74
2022-09-09T22:11:23.119Z,22.74
2022-09-09T22:13:53.238Z,22.73
2022-09-09T22:16:24.145Z,22.74
2022-09-09T22:18:53.465Z,22.74
2022-09-09T22:21:23.374Z,22.71
2022-09-09T22:23:55.574Z,22.74
2022-09-09T22:26:24.670Z,22.74
2022-09-09T22:28:54.022Z,22.72
2022-09-09T22:31:22.851Z,22.61
2022-09-09T22:33:51.860Z,22.51
2022-09-09T22:36:21.024Z,22.67
2022-09-09T22:38:50.955Z,22.67
2022-09-09T22:41:19.998Z,22.68
2022-09-09T22:43:48.890Z,22.67
2022-09-09T22:46:17.076Z,22.67
2022-09-09T22:48:45.524Z,22.68
2022-09-09T22:51:16.065Z,22.69
2022-09-09T22:53:45.877Z,22.68
2022-09-09T22:56:19.297Z,22.69
2022-09-09T22:58:48.228Z,22.68
2022-09-09T23:01:19.396Z,22.67
2022-09-09T23:03:49.009Z,22.67
2022-09-09T23:06:20.305Z,22.66
2022-09-09T23:08:49.364Z,22.67
2022-09-09T23:11:19.044Z,22.67
2022-09-09T23:13:50.412Z,22.71
2022-09-09T23:16:20.161Z,22.70
2022-09-09T23:18:48.612Z,22.73
2022-09-09T23:21:17.468Z,22.75
2022-09-09T23:23:45.930Z,22.75
2022-09-09T23:26:21.030Z,22.76
2022-09-09T23:28:51.889Z,22.76
2022-09-09T23:31:22.513Z,22.76
2022-09-09T23:33:50.653Z,22.73
2022-09-09T23:36:20.869Z,22.53
2022-09-09T23:38:49.493Z,22.50
2022-09-09T23:41:21.220Z,22.73
2022-09-09T23:43:52.356Z,22.74
2022-09-09T23:46:22.631Z,22.72
2022-09-09T23:48:51.938Z,22.73
2022-09-09T23:51:23.736Z,22.66
2022-09-09T23:53:54.081Z,22.74
2022-09-09T23:56:23.703Z,22.60
2022-09-09T23:58:53.814Z,22.73
